sensor_id;sensor_type;location;lat;lon;timestamp;P1;P2;P0
28026;PMS5003;15344;52.342;-1.290;2023-03-08T00:01:49;23;17;
28026;PMS5003;15344;52.342;-1.290;2023-03-08T00:04:14;28;22;
28026;PMS5003;15344;52.342;-1.290;2023-03-08T00:06:39;18;17;
28026;PMS5003;15344;52.342;-1.290;2023-03-08T00:09:05;26;18;
28026;PMS5003;15344;52.342;-1.290;2023-03-08T00:11:31;28;23;
28026;PMS5003;15344;52.342;-1.290;2023-03-08T00:13:57;25;22;
28026;PMS5003;15344;52.342;-1.290;2023-03-08T00:16:22;18;17;
28026;PMS5003;15344;52.342;-1.290;2023-03-08T00:18:47;22;18;
28026;PMS5003;15344;52.342;-1.290;2023-03-08T00:21:13;26;19;
28026;PMS5003;15344;52.342;-1.290;2023-03-08T00:23:38;25;19;
28026;PMS5003;15344;52.342;-1.290;2023-03-08T00:26:04;20;18;
28026;PMS5003;15344;52.342;-1.290;2023-03-08T00:28:29;25;20;
28026;PMS5003;15344;52.342;-1.290;2023-03-08T00:30:55;22;17;
28026;PMS5003;15344;52.342;-1.290;2023-03-08T00:33:20;21;19;
28026;PMS5003;15344;52.342;-1.290;2023-03-08T00:38:11;22;22;
28026;PMS5003;15344;52.342;-1.290;2023-03-08T00:40:37;22;22;
28026;PMS5003;15344;52.342;-1.290;2023-03-08T00:43:02;19;18;
28026;PMS5003;15344;52.342;-1.290;2023-03-08T00:45:27;21;19;
28026;PMS5003;15344;52.342;-1.290;2023-03-08T00:47:53;22;20;
28026;PMS5003;15344;52.342;-1.290;2023-03-08T00:50:18;24;21;
28026;PMS5003;15344;52.342;-1.290;2023-03-08T00:52:44;21;20;
28026;PMS5003;15344;52.342;-1.290;2023-03-08T00:55:09;20;18;
28026;PMS5003;15344;52.342;-1.290;2023-03-08T00:57:34;26;23;
28026;PMS5003;15344;52.342;-1.290;2023-03-08T01:00:00;26;21;
28026;PMS5003;15344;52.342;-1.290;2023-03-08T01:02:26;24;22;
28026;PMS5003;15344;52.342;-1.290;2023-03-08T01:04:51;27;24;
28026;PMS5003;15344;52.342;-1.290;2023-03-08T01:07:17;29;25;
28026;PMS5003;15344;52.342;-1.290;2023-03-08T01:09:42;20;19;
28026;PMS5003;15344;52.342;-1.290;2023-03-08T01:12:08;21;20;
28026;PMS5003;15344;52.342;-1.290;2023-03-08T01:14:33;24;23;
28026;PMS5003;15344;52.342;-1.290;2023-03-08T01:16:58;27;23;
28026;PMS5003;15344;52.342;-1.290;2023-03-08T01:19:24;30;24;
28026;PMS5003;15344;52.342;-1.290;2023-03-08T01:21:49;25;22;
28026;PMS5003;15344;52.342;-1.290;2023-03-08T01:24:15;23;19;
28026;PMS5003;15344;52.342;-1.290;2023-03-08T01:26:41;28;23;
28026;PMS5003;15344;52.342;-1.290;2023-03-08T01:29:06;25;22;
28026;PMS5003;15344;52.342;-1.290;2023-03-08T01:31:31;36;25;
28026;PMS5003;15344;52.342;-1.290;2023-03-08T01:33:57;24;20;
28026;PMS5003;15344;52.342;-1.290;2023-03-08T01:36:23;33;25;
28026;PMS5003;15344;52.342;-1.290;2023-03-08T01:38:48;29;26;
28026;PMS5003;15344;52.342;-1.290;2023-03-08T01:41:14;30;21;
28026;PMS5003;15344;52.342;-1.290;2023-03-08T01:43:38;34;29;
28026;PMS5003;15344;52.342;-1.290;2023-03-08T01:46:06;30;24;
28026;PMS5003;15344;52.342;-1.290;2023-03-08T01:48:29;32;27;
28026;PMS5003;15344;52.342;-1.290;2023-03-08T01:50:54;32;28;
28026;PMS5003;15344;52.342;-1.290;2023-03-08T01:53:19;35;29;
28026;PMS5003;15344;52.342;-1.290;2023-03-08T01:55:45;33;26;
28026;PMS5003;15344;52.342;-1.290;2023-03-08T01:58:11;41;35;
28026;PMS5003;15344;52.342;-1.290;2023-03-08T02:00:37;27;25;
28026;PMS5003;15344;52.342;-1.290;2023-03-08T02:03:03;30;26;
28026;PMS5003;15344;52.342;-1.290;2023-03-08T02:05:28;32;24;
28026;PMS5003;15344;52.342;-1.290;2023-03-08T02:07:53;33;29;
28026;PMS5003;15344;52.342;-1.290;2023-03-08T02:10:19;29;25;
28026;PMS5003;15344;52.342;-1.290;2023-03-08T02:12:44;37;27;
28026;PMS5003;15344;52.342;-1.290;2023-03-08T02:15:11;38;33;
28026;PMS5003;15344;52.342;-1.290;2023-03-08T02:17:35;41;37;
28026;PMS5003;15344;52.342;-1.290;2023-03-08T02:20:04;35;28;
28026;PMS5003;15344;52.342;-1.290;2023-03-08T02:22:26;35;28;
28026;PMS5003;15344;52.342;-1.290;2023-03-08T02:24:51;38;34;
28026;PMS5003;15344;52.342;-1.290;2023-03-08T02:27:18;39;31;
28026;PMS5003;15344;52.342;-1.290;2023-03-08T02:29:41;32;24;
28026;PMS5003;15344;52.342;-1.290;2023-03-08T02:32:07;42;32;
28026;PMS5003;15344;52.342;-1.290;2023-03-08T02:34:32;37;30;
28026;PMS5003;15344;52.342;-1.290;2023-03-08T02:36:57;36;27;
28026;PMS5003;15344;52.342;-1.290;2023-03-08T02:39:23;36;30;
28026;PMS5003;15344;52.342;-1.290;2023-03-08T02:41:49;32;28;
28026;PMS5003;15344;52.342;-1.290;2023-03-08T02:44:15;33;24;
28026;PMS5003;15344;52.342;-1.290;2023-03-08T02:46:39;34;29;
28026;PMS5003;15344;52.342;-1.290;2023-03-08T02:49:05;33;28;
28026;PMS5003;15344;52.342;-1.290;2023-03-08T02:51:30;38;27;
28026;PMS5003;15344;52.342;-1.290;2023-03-08T02:53:56;28;26;
28026;PMS5003;15344;52.342;-1.290;2023-03-08T02:56:21;30;25;
28026;PMS5003;15344;52.342;-1.290;2023-03-08T02:58:46;31;27;
28026;PMS5003;15344;52.342;-1.290;2023-03-08T03:01:12;35;31;
28026;PMS5003;15344;52.342;-1.290;2023-03-08T03:03:37;32;26;
28026;PMS5003;15344;52.342;-1.290;2023-03-08T03:06:03;32;28;
28026;PMS5003;15344;52.342;-1.290;2023-03-08T03:08:28;36;33;
28026;PMS5003;15344;52.342;-1.290;2023-03-08T03:10:53;40;32;
28026;PMS5003;15344;52.342;-1.290;2023-03-08T03:13:19;40;34;
28026;PMS5003;15344;52.342;-1.290;2023-03-08T03:15:44;37;32;
28026;PMS5003;15344;52.342;-1.290;2023-03-08T03:18:09;49;35;
28026;PMS5003;15344;52.342;-1.290;2023-03-08T03:20:35;33;28;
28026;PMS5003;15344;52.342;-1.290;2023-03-08T03:23:00;38;35;
28026;PMS5003;15344;52.342;-1.290;2023-03-08T03:25:26;38;31;
28026;PMS5003;15344;52.342;-1.290;2023-03-08T03:27:52;41;36;
28026;PMS5003;15344;52.342;-1.290;2023-03-08T03:30:17;38;35;
28026;PMS5003;15344;52.342;-1.290;2023-03-08T03:32:43;38;35;
28026;PMS5003;15344;52.342;-1.290;2023-03-08T03:35:08;29;25;
28026;PMS5003;15344;52.342;-1.290;2023-03-08T03:37:34;46;33;
28026;PMS5003;15344;52.342;-1.290;2023-03-08T03:39:58;43;35;
28026;PMS5003;15344;52.342;-1.290;2023-03-08T03:42:24;47;32;
28026;PMS5003;15344;52.342;-1.290;2023-03-08T03:44:50;39;34;
28026;PMS5003;15344;52.342;-1.290;2023-03-08T03:47:15;40;36;
28026;PMS5003;15344;52.342;-1.290;2023-03-08T03:49:40;33;30;
28026;PMS5003;15344;52.342;-1.290;2023-03-08T03:52:06;39;33;
28026;PMS5003;15344;52.342;-1.290;2023-03-08T03:54:31;55;43;
28026;PMS5003;15344;52.342;-1.290;2023-03-08T03:56:57;43;31;
28026;PMS5003;15344;52.342;-1.290;2023-03-08T03:59:22;41;38;
28026;PMS5003;15344;52.342;-1.290;2023-03-08T04:01:47;48;40;
28026;PMS5003;15344;52.342;-1.290;2023-03-08T04:04:13;38;32;
28026;PMS5003;15344;52.342;-1.290;2023-03-08T04:06:38;52;38;
28026;PMS5003;15344;52.342;-1.290;2023-03-08T04:09:04;43;34;
28026;PMS5003;15344;52.342;-1.290;2023-03-08T04:11:30;46;35;
28026;PMS5003;15344;52.342;-1.290;2023-03-08T04:13:54;44;34;
28026;PMS5003;15344;52.342;-1.290;2023-03-08T04:16:20;47;37;
28026;PMS5003;15344;52.342;-1.290;2023-03-08T04:18:45;51;39;
28026;PMS5003;15344;52.342;-1.290;2023-03-08T04:21:10;47;35;
28026;PMS5003;15344;52.342;-1.290;2023-03-08T04:23:36;40;33;
28026;PMS5003;15344;52.342;-1.290;2023-03-08T04:26:01;40;34;
28026;PMS5003;15344;52.342;-1.290;2023-03-08T04:28:27;52;37;
28026;PMS5003;15344;52.342;-1.290;2023-03-08T04:30:52;40;35;
28026;PMS5003;15344;52.342;-1.290;2023-03-08T04:33:17;44;40;
28026;PMS5003;15344;52.342;-1.290;2023-03-08T04:35:42;41;33;
28026;PMS5003;15344;52.342;-1.290;2023-03-08T04:38:08;39;34;
28026;PMS5003;15344;52.342;-1.290;2023-03-08T04:40:34;50;37;
28026;PMS5003;15344;52.342;-1.290;2023-03-08T04:42:59;41;32;
28026;PMS5003;15344;52.342;-1.290;2023-03-08T04:45:24;42;36;
28026;PMS5003;15344;52.342;-1.290;2023-03-08T04:47:50;41;32;
28026;PMS5003;15344;52.342;-1.290;2023-03-08T04:50:16;49;35;
28026;PMS5003;15344;52.342;-1.290;2023-03-08T04:52:41;53;39;
28026;PMS5003;15344;52.342;-1.290;2023-03-08T04:55:07;46;35;
28026;PMS5003;15344;52.342;-1.290;2023-03-08T04:57:32;41;31;
28026;PMS5003;15344;52.342;-1.290;2023-03-08T04:59:58;39;29;
28026;PMS5003;15344;52.342;-1.290;2023-03-08T05:02:23;39;33;
28026;PMS5003;15344;52.342;-1.290;2023-03-08T05:04:48;35;29;
28026;PMS5003;15344;52.342;-1.290;2023-03-08T05:07:14;36;33;
28026;PMS5003;15344;52.342;-1.290;2023-03-08T05:09:39;43;34;
28026;PMS5003;15344;52.342;-1.290;2023-03-08T05:12:05;43;33;
28026;PMS5003;15344;52.342;-1.290;2023-03-08T05:14:30;40;37;
28026;PMS5003;15344;52.342;-1.290;2023-03-08T05:16:56;34;29;
28026;PMS5003;15344;52.342;-1.290;2023-03-08T05:19:21;43;31;
28026;PMS5003;15344;52.342;-1.290;2023-03-08T05:21:47;42;34;
28026;PMS5003;15344;52.342;-1.290;2023-03-08T05:24:13;42;30;
28026;PMS5003;15344;52.342;-1.290;2023-03-08T05:26:38;38;33;
28026;PMS5003;15344;52.342;-1.290;2023-03-08T05:29:03;32;26;
28026;PMS5003;15344;52.342;-1.290;2023-03-08T05:31:29;32;27;
28026;PMS5003;15344;52.342;-1.290;2023-03-08T05:33:55;35;30;
28026;PMS5003;15344;52.342;-1.290;2023-03-08T05:36:20;29;25;
28026;PMS5003;15344;52.342;-1.290;2023-03-08T05:38:45;36;30;
28026;PMS5003;15344;52.342;-1.290;2023-03-08T05:41:12;33;26;
28026;PMS5003;15344;52.342;-1.290;2023-03-08T05:43:36;28;28;
28026;PMS5003;15344;52.342;-1.290;2023-03-08T05:46:03;35;28;
28026;PMS5003;15344;52.342;-1.290;2023-03-08T05:48:28;38;30;
28026;PMS5003;15344;52.342;-1.290;2023-03-08T05:50:54;31;27;
28026;PMS5003;15344;52.342;-1.290;2023-03-08T05:53:19;28;21;
28026;PMS5003;15344;52.342;-1.290;2023-03-08T05:55:44;37;30;
28026;PMS5003;15344;52.342;-1.290;2023-03-08T05:58:09;42;32;
28026;PMS5003;15344;52.342;-1.290;2023-03-08T06:00:35;32;28;
28026;PMS5003;15344;52.342;-1.290;2023-03-08T06:03:00;33;27;
28026;PMS5003;15344;52.342;-1.290;2023-03-08T06:05:26;29;25;
28026;PMS5003;15344;52.342;-1.290;2023-03-08T06:07:52;34;31;
28026;PMS5003;15344;52.342;-1.290;2023-03-08T06:10:17;32;27;
28026;PMS5003;15344;52.342;-1.290;2023-03-08T06:12:43;29;26;
28026;PMS5003;15344;52.342;-1.290;2023-03-08T06:15:09;29;24;
28026;PMS5003;15344;52.342;-1.290;2023-03-08T06:17:34;33;27;
28026;PMS5003;15344;52.342;-1.290;2023-03-08T06:19:59;38;29;
28026;PMS5003;15344;52.342;-1.290;2023-03-08T06:22:25;36;24;
28026;PMS5003;15344;52.342;-1.290;2023-03-08T06:24:50;25;25;
28026;PMS5003;15344;52.342;-1.290;2023-03-08T06:27:15;32;25;
28026;PMS5003;15344;52.342;-1.290;2023-03-08T06:29:41;29;25;
28026;PMS5003;15344;52.342;-1.290;2023-03-08T06:32:06;35;26;
28026;PMS5003;15344;52.342;-1.290;2023-03-08T06:34:32;31;27;
28026;PMS5003;15344;52.342;-1.290;2023-03-08T06:36:57;27;22;
28026;PMS5003;15344;52.342;-1.290;2023-03-08T06:39:22;33;28;
28026;PMS5003;15344;52.342;-1.290;2023-03-08T06:41:48;32;28;
28026;PMS5003;15344;52.342;-1.290;2023-03-08T06:44:13;26;24;
28026;PMS5003;15344;52.342;-1.290;2023-03-08T06:46:38;27;19;
28026;PMS5003;15344;52.342;-1.290;2023-03-08T06:49:04;28;24;
28026;PMS5003;15344;52.342;-1.290;2023-03-08T06:51:29;25;21;
28026;PMS5003;15344;52.342;-1.290;2023-03-08T06:53:55;24;21;
28026;PMS5003;15344;52.342;-1.290;2023-03-08T06:56:20;30;26;
28026;PMS5003;15344;52.342;-1.290;2023-03-08T06:58:46;27;23;
28026;PMS5003;15344;52.342;-1.290;2023-03-08T07:01:11;27;22;
28026;PMS5003;15344;52.342;-1.290;2023-03-08T07:03:36;28;26;
28026;PMS5003;15344;52.342;-1.290;2023-03-08T07:06:02;29;25;
28026;PMS5003;15344;52.342;-1.290;2023-03-08T07:08:27;30;25;
28026;PMS5003;15344;52.342;-1.290;2023-03-08T07:10:53;28;25;
28026;PMS5003;15344;52.342;-1.290;2023-03-08T07:13:18;24;23;
28026;PMS5003;15344;52.342;-1.290;2023-03-08T07:15:43;30;22;
28026;PMS5003;15344;52.342;-1.290;2023-03-08T07:18:09;33;27;
28026;PMS5003;15344;52.342;-1.290;2023-03-08T07:20:35;30;24;
28026;PMS5003;15344;52.342;-1.290;2023-03-08T07:23:00;24;18;
28026;PMS5003;15344;52.342;-1.290;2023-03-08T07:25:25;23;19;
28026;PMS5003;15344;52.342;-1.290;2023-03-08T07:27:51;17;17;
28026;PMS5003;15344;52.342;-1.290;2023-03-08T07:30:16;19;16;
28026;PMS5003;15344;52.342;-1.290;2023-03-08T07:32:41;18;15;
28026;PMS5003;15344;52.342;-1.290;2023-03-08T07:35:06;25;18;
28026;PMS5003;15344;52.342;-1.290;2023-03-08T07:37:32;19;18;
28026;PMS5003;15344;52.342;-1.290;2023-03-08T07:39:57;18;14;
28026;PMS5003;15344;52.342;-1.290;2023-03-08T07:42:23;21;18;
28026;PMS5003;15344;52.342;-1.290;2023-03-08T07:44:48;25;17;
28026;PMS5003;15344;52.342;-1.290;2023-03-08T07:47:13;28;19;
28026;PMS5003;15344;52.342;-1.290;2023-03-08T07:49:39;18;17;
28026;PMS5003;15344;52.342;-1.290;2023-03-08T07:52:05;29;20;
28026;PMS5003;15344;52.342;-1.290;2023-03-08T07:54:31;25;19;
28026;PMS5003;15344;52.342;-1.290;2023-03-08T07:56:56;25;17;
28026;PMS5003;15344;52.342;-1.290;2023-03-08T07:59:22;26;19;
28026;PMS5003;15344;52.342;-1.290;2023-03-08T08:01:47;21;16;
28026;PMS5003;15344;52.342;-1.290;2023-03-08T08:04:13;16;16;
28026;PMS5003;15344;52.342;-1.290;2023-03-08T08:06:38;24;17;
28026;PMS5003;15344;52.342;-1.290;2023-03-08T08:09:04;18;16;
28026;PMS5003;15344;52.342;-1.290;2023-03-08T08:11:29;23;16;
28026;PMS5003;15344;52.342;-1.290;2023-03-08T08:13:55;19;18;
28026;PMS5003;15344;52.342;-1.290;2023-03-08T08:16:20;18;14;
28026;PMS5003;15344;52.342;-1.290;2023-03-08T08:18:45;20;16;
28026;PMS5003;15344;52.342;-1.290;2023-03-08T08:21:11;17;15;
28026;PMS5003;15344;52.342;-1.290;2023-03-08T08:23:37;20;18;
28026;PMS5003;15344;52.342;-1.290;2023-03-08T08:26:03;18;12;
28026;PMS5003;15344;52.342;-1.290;2023-03-08T08:28:27;14;12;
28026;PMS5003;15344;52.342;-1.290;2023-03-08T08:30:54;14;14;
28026;PMS5003;15344;52.342;-1.290;2023-03-08T08:33:18;29;17;
28026;PMS5003;15344;52.342;-1.290;2023-03-08T08:35:44;21;15;
28026;PMS5003;15344;52.342;-1.290;2023-03-08T08:38:09;17;14;
28026;PMS5003;15344;52.342;-1.290;2023-03-08T08:40:35;21;17;
28026;PMS5003;15344;52.342;-1.290;2023-03-08T08:42:59;21;13;
28026;PMS5003;15344;52.342;-1.290;2023-03-08T08:45:25;16;13;
28026;PMS5003;15344;52.342;-1.290;2023-03-08T08:47:50;24;19;
28026;PMS5003;15344;52.342;-1.290;2023-03-08T08:50:16;19;15;
28026;PMS5003;15344;52.342;-1.290;2023-03-08T08:52:41;18;13;
28026;PMS5003;15344;52.342;-1.290;2023-03-08T08:55:07;20;16;
28026;PMS5003;15344;52.342;-1.290;2023-03-08T08:57:33;17;13;
28026;PMS5003;15344;52.342;-1.290;2023-03-08T08:59:57;15;13;
28026;PMS5003;15344;52.342;-1.290;2023-03-08T09:02:23;19;18;
28026;PMS5003;15344;52.342;-1.290;2023-03-08T09:04:48;14;13;
28026;PMS5003;15344;52.342;-1.290;2023-03-08T09:07:14;13;11;
28026;PMS5003;15344;52.342;-1.290;2023-03-08T09:09:39;14;10;
28026;PMS5003;15344;52.342;-1.290;2023-03-08T09:12:05;8;8;
28026;PMS5003;15344;52.342;-1.290;2023-03-08T09:14:30;14;11;
28026;PMS5003;15344;52.342;-1.290;2023-03-08T09:16:56;14;13;
28026;PMS5003;15344;52.342;-1.290;2023-03-08T09:19:21;14;10;
28026;PMS5003;15344;52.342;-1.290;2023-03-08T09:21:47;16;11;
28026;PMS5003;15344;52.342;-1.290;2023-03-08T09:24:13;10;8;
28026;PMS5003;15344;52.342;-1.290;2023-03-08T09:26:38;11;9;
28026;PMS5003;15344;52.342;-1.290;2023-03-08T09:29:04;11;10;
28026;PMS5003;15344;52.342;-1.290;2023-03-08T09:31:29;15;9;
28026;PMS5003;15344;52.342;-1.290;2023-03-08T09:33:54;13;11;
28026;PMS5003;15344;52.342;-1.290;2023-03-08T09:36:20;16;11;
28026;PMS5003;15344;52.342;-1.290;2023-03-08T09:38:46;7;7;
28026;PMS5003;15344;52.342;-1.290;2023-03-08T09:41:17;8;8;
28026;PMS5003;15344;52.342;-1.290;2023-03-08T09:43:40;10;9;
28026;PMS5003;15344;52.342;-1.290;2023-03-08T09:46:02;11;8;
28026;PMS5003;15344;52.342;-1.290;2023-03-08T09:48:28;10;10;
28026;PMS5003;15344;52.342;-1.290;2023-03-08T09:50:53;10;9;
28026;PMS5003;15344;52.342;-1.290;2023-03-08T09:53:20;18;13;
28026;PMS5003;15344;52.342;-1.290;2023-03-08T09:55:44;13;9;
28026;PMS5003;15344;52.342;-1.290;2023-03-08T09:58:12;14;11;
28026;PMS5003;15344;52.342;-1.290;2023-03-08T10:00:35;16;10;
28026;PMS5003;15344;52.342;-1.290;2023-03-08T10:03:11;9;9;
28026;PMS5003;15344;52.342;-1.290;2023-03-08T10:05:26;8;8;
28026;PMS5003;15344;52.342;-1.290;2023-03-08T10:07:53;15;10;
28026;PMS5003;15344;52.342;-1.290;2023-03-08T10:10:21;11;10;
28026;PMS5003;15344;52.342;-1.290;2023-03-08T10:12:48;15;9;
28026;PMS5003;15344;52.342;-1.290;2023-03-08T10:15:10;11;9;
28026;PMS5003;15344;52.342;-1.290;2023-03-08T10:17:38;12;9;
28026;PMS5003;15344;52.342;-1.290;2023-03-08T10:20:02;7;5;
28026;PMS5003;15344;52.342;-1.290;2023-03-08T10:22:27;17;8;
28026;PMS5003;15344;52.342;-1.290;2023-03-08T10:24:53;10;9;
28026;PMS5003;15344;52.342;-1.290;2023-03-08T10:27:18;10;9;
28026;PMS5003;15344;52.342;-1.290;2023-03-08T10:29:47;9;9;
28026;PMS5003;15344;52.342;-1.290;2023-03-08T10:32:09;10;10;
28026;PMS5003;15344;52.342;-1.290;2023-03-08T10:34:34;14;10;
28026;PMS5003;15344;52.342;-1.290;2023-03-08T10:37:00;12;10;
28026;PMS5003;15344;52.342;-1.290;2023-03-08T10:39:25;12;9;
28026;PMS5003;15344;52.342;-1.290;2023-03-08T10:41:52;9;8;
28026;PMS5003;15344;52.342;-1.290;2023-03-08T10:46:46;8;8;
28026;PMS5003;15344;52.342;-1.290;2023-03-08T10:49:08;10;10;
28026;PMS5003;15344;52.342;-1.290;2023-03-08T10:51:33;11;8;
28026;PMS5003;15344;52.342;-1.290;2023-03-08T10:54:00;10;9;
28026;PMS5003;15344;52.342;-1.290;2023-03-08T10:56:25;16;13;
28026;PMS5003;15344;52.342;-1.290;2023-03-08T10:58:53;9;8;
28026;PMS5003;15344;52.342;-1.290;2023-03-08T11:03:41;10;10;
28026;PMS5003;15344;52.342;-1.290;2023-03-08T11:06:11;9;9;
28026;PMS5003;15344;52.342;-1.290;2023-03-08T11:08:33;16;12;
28026;PMS5003;15344;52.342;-1.290;2023-03-08T11:10:59;11;10;
28026;PMS5003;15344;52.342;-1.290;2023-03-08T11:13:24;11;9;
28026;PMS5003;15344;52.342;-1.290;2023-03-08T11:15:52;8;8;
28026;PMS5003;15344;52.342;-1.290;2023-03-08T11:18:17;14;12;
28026;PMS5003;15344;52.342;-1.290;2023-03-08T11:20:41;12;9;
28026;PMS5003;15344;52.342;-1.290;2023-03-08T11:23:11;11;10;
28026;PMS5003;15344;52.342;-1.290;2023-03-08T11:25:33;10;9;
28026;PMS5003;15344;52.342;-1.290;2023-03-08T11:28:04;13;11;
28026;PMS5003;15344;52.342;-1.290;2023-03-08T11:30:25;10;9;
28026;PMS5003;15344;52.342;-1.290;2023-03-08T11:32:53;10;10;
28026;PMS5003;15344;52.342;-1.290;2023-03-08T11:35:15;17;10;
28026;PMS5003;15344;52.342;-1.290;2023-03-08T11:37:41;15;12;
28026;PMS5003;15344;52.342;-1.290;2023-03-08T11:40:12;14;12;
28026;PMS5003;15344;52.342;-1.290;2023-03-08T11:42:31;12;10;
28026;PMS5003;15344;52.342;-1.290;2023-03-08T11:45:00;10;9;
28026;PMS5003;15344;52.342;-1.290;2023-03-08T11:49:51;14;9;
28026;PMS5003;15344;52.342;-1.290;2023-03-08T11:52:14;9;9;
28026;PMS5003;15344;52.342;-1.290;2023-03-08T11:54:43;9;9;
28026;PMS5003;15344;52.342;-1.290;2023-03-08T11:57:04;10;10;
28026;PMS5003;15344;52.342;-1.290;2023-03-08T11:59:30;13;12;
28026;PMS5003;15344;52.342;-1.290;2023-03-08T12:01:56;10;8;
28026;PMS5003;15344;52.342;-1.290;2023-03-08T12:04:20;8;7;
28026;PMS5003;15344;52.342;-1.290;2023-03-08T12:06:46;10;10;
28026;PMS5003;15344;52.342;-1.290;2023-03-08T12:09:13;13;9;
28026;PMS5003;15344;52.342;-1.290;2023-03-08T12:11:37;11;8;
28026;PMS5003;15344;52.342;-1.290;2023-03-08T12:14:04;9;9;
28026;PMS5003;15344;52.342;-1.290;2023-03-08T12:16:29;8;8;
28026;PMS5003;15344;52.342;-1.290;2023-03-08T12:18:55;8;8;
28026;PMS5003;15344;52.342;-1.290;2023-03-08T12:21:22;9;9;
28026;PMS5003;15344;52.342;-1.290;2023-03-08T12:23:47;8;7;
28026;PMS5003;15344;52.342;-1.290;2023-03-08T12:26:13;16;8;
28026;PMS5003;15344;52.342;-1.290;2023-03-08T12:28:37;12;6;
28026;PMS5003;15344;52.342;-1.290;2023-03-08T12:31:06;8;7;
28026;PMS5003;15344;52.342;-1.290;2023-03-08T12:33:27;16;13;
28026;PMS5003;15344;52.342;-1.290;2023-03-08T12:35:54;19;14;
28026;PMS5003;15344;52.342;-1.290;2023-03-08T12:40:45;13;10;
28026;PMS5003;15344;52.342;-1.290;2023-03-08T12:43:11;10;10;
28026;PMS5003;15344;52.342;-1.290;2023-03-08T12:45:36;12;10;
28026;PMS5003;15344;52.342;-1.290;2023-03-08T12:50:27;12;9;
28026;PMS5003;15344;52.342;-1.290;2023-03-08T12:52:53;12;12;
28026;PMS5003;15344;52.342;-1.290;2023-03-08T12:55:18;6;6;
28026;PMS5003;15344;52.342;-1.290;2023-03-08T12:57:45;8;8;
28026;PMS5003;15344;52.342;-1.290;2023-03-08T13:02:35;5;5;
28026;PMS5003;15344;52.342;-1.290;2023-03-08T13:05:03;12;9;
28026;PMS5003;15344;52.342;-1.290;2023-03-08T13:07:27;8;7;
28026;PMS5003;15344;52.342;-1.290;2023-03-08T13:09:54;8;6;
28026;PMS5003;15344;52.342;-1.290;2023-03-08T13:12:21;10;9;
28026;PMS5003;15344;52.342;-1.290;2023-03-08T13:14:44;13;8;
28026;PMS5003;15344;52.342;-1.290;2023-03-08T13:19:34;7;7;
28026;PMS5003;15344;52.342;-1.290;2023-03-08T13:22:02;13;6;
28026;PMS5003;15344;52.342;-1.290;2023-03-08T13:24:31;10;9;
28026;PMS5003;15344;52.342;-1.290;2023-03-08T13:26:54;7;7;
28026;PMS5003;15344;52.342;-1.290;2023-03-08T13:29:17;10;10;
28026;PMS5003;15344;52.342;-1.290;2023-03-08T13:31:42;10;9;
28026;PMS5003;15344;52.342;-1.290;2023-03-08T13:36:33;10;8;
28026;PMS5003;15344;52.342;-1.290;2023-03-08T13:39:00;8;7;
28026;PMS5003;15344;52.342;-1.290;2023-03-08T13:43:50;9;5;
28026;PMS5003;15344;52.342;-1.290;2023-03-08T13:46:21;7;5;
28026;PMS5003;15344;52.342;-1.290;2023-03-08T13:48:42;4;4;
28026;PMS5003;15344;52.342;-1.290;2023-03-08T13:51:07;6;6;
28026;PMS5003;15344;52.342;-1.290;2023-03-08T13:53:35;6;5;
28026;PMS5003;15344;52.342;-1.290;2023-03-08T13:55:59;9;7;
28026;PMS5003;15344;52.342;-1.290;2023-03-08T13:58:26;6;6;
28026;PMS5003;15344;52.342;-1.290;2023-03-08T14:03:17;16;8;
28026;PMS5003;15344;52.342;-1.290;2023-03-08T14:05:42;9;8;
28026;PMS5003;15344;52.342;-1.290;2023-03-08T14:10:35;8;8;
28026;PMS5003;15344;52.342;-1.290;2023-03-08T14:12:59;7;7;
28026;PMS5003;15344;52.342;-1.290;2023-03-08T14:15:24;8;8;
28026;PMS5003;15344;52.342;-1.290;2023-03-08T14:17:50;8;8;
28026;PMS5003;15344;52.342;-1.290;2023-03-08T14:20:16;9;8;
28026;PMS5003;15344;52.342;-1.290;2023-03-08T14:22:44;11;8;
28026;PMS5003;15344;52.342;-1.290;2023-03-08T14:25:15;8;7;
28026;PMS5003;15344;52.342;-1.290;2023-03-08T14:27:36;14;9;
28026;PMS5003;15344;52.342;-1.290;2023-03-08T14:30:00;11;6;
28026;PMS5003;15344;52.342;-1.290;2023-03-08T14:32:28;9;9;
28026;PMS5003;15344;52.342;-1.290;2023-03-08T14:34:50;8;6;
28026;PMS5003;15344;52.342;-1.290;2023-03-08T14:37:17;8;7;
28026;PMS5003;15344;52.342;-1.290;2023-03-08T14:39:42;5;5;
28026;PMS5003;15344;52.342;-1.290;2023-03-08T14:42:08;6;6;
28026;PMS5003;15344;52.342;-1.290;2023-03-08T14:44:32;10;8;
28026;PMS5003;15344;52.342;-1.290;2023-03-08T14:49:24;15;13;
28026;PMS5003;15344;52.342;-1.290;2023-03-08T14:51:49;13;13;
28026;PMS5003;15344;52.342;-1.290;2023-03-08T14:54:19;14;11;
28026;PMS5003;15344;52.342;-1.290;2023-03-08T14:56:41;11;9;
28026;PMS5003;15344;52.342;-1.290;2023-03-08T14:59:08;11;11;
28026;PMS5003;15344;52.342;-1.290;2023-03-08T15:01:33;14;9;
28026;PMS5003;15344;52.342;-1.290;2023-03-08T15:03:58;13;9;
28026;PMS5003;15344;52.342;-1.290;2023-03-08T15:06:24;8;8;
28026;PMS5003;15344;52.342;-1.290;2023-03-08T15:08:48;12;9;
28026;PMS5003;15344;52.342;-1.290;2023-03-08T15:11:14;13;8;
28026;PMS5003;15344;52.342;-1.290;2023-03-08T15:13:39;9;9;
28026;PMS5003;15344;52.342;-1.290;2023-03-08T15:16:05;9;5;
28026;PMS5003;15344;52.342;-1.290;2023-03-08T15:18:30;6;5;
28026;PMS5003;15344;52.342;-1.290;2023-03-08T15:20:57;4;4;
28026;PMS5003;15344;52.342;-1.290;2023-03-08T15:23:23;5;5;
28026;PMS5003;15344;52.342;-1.290;2023-03-08T15:25:48;4;3;
28026;PMS5003;15344;52.342;-1.290;2023-03-08T15:28:14;5;3;
28026;PMS5003;15344;52.342;-1.290;2023-03-08T15:30:39;5;4;
28026;PMS5003;15344;52.342;-1.290;2023-03-08T15:33:05;5;5;
28026;PMS5003;15344;52.342;-1.290;2023-03-08T15:35:31;5;5;
28026;PMS5003;15344;52.342;-1.290;2023-03-08T15:37:56;4;4;
28026;PMS5003;15344;52.342;-1.290;2023-03-08T15:40:23;6;4;
28026;PMS5003;15344;52.342;-1.290;2023-03-08T15:42:48;4;2;
28026;PMS5003;15344;52.342;-1.290;2023-03-08T15:45:13;3;3;
28026;PMS5003;15344;52.342;-1.290;2023-03-08T15:47:39;4;4;
28026;PMS5003;15344;52.342;-1.290;2023-03-08T15:50:09;5;3;
28026;PMS5003;15344;52.342;-1.290;2023-03-08T15:52:31;5;4;
28026;PMS5003;15344;52.342;-1.290;2023-03-08T15:54:57;5;5;
28026;PMS5003;15344;52.342;-1.290;2023-03-08T15:57:22;4;4;
28026;PMS5003;15344;52.342;-1.290;2023-03-08T15:59:48;6;4;
28026;PMS5003;15344;52.342;-1.290;2023-03-08T16:02:15;5;5;
28026;PMS5003;15344;52.342;-1.290;2023-03-08T16:04:39;6;6;
28026;PMS5003;15344;52.342;-1.290;2023-03-08T16:07:05;5;5;
28026;PMS5003;15344;52.342;-1.290;2023-03-08T16:09:31;6;4;
28026;PMS5003;15344;52.342;-1.290;2023-03-08T16:11:56;5;5;
28026;PMS5003;15344;52.342;-1.290;2023-03-08T16:14:21;4;4;
28026;PMS5003;15344;52.342;-1.290;2023-03-08T16:16:47;4;4;
28026;PMS5003;15344;52.342;-1.290;2023-03-08T16:19:14;6;3;
28026;PMS5003;15344;52.342;-1.290;2023-03-08T16:21:39;4;4;
28026;PMS5003;15344;52.342;-1.290;2023-03-08T16:24:04;5;3;
28026;PMS5003;15344;52.342;-1.290;2023-03-08T16:26:30;4;4;
28026;PMS5003;15344;52.342;-1.290;2023-03-08T16:28:56;5;3;